createdAt,value
2022-12-03T00:03:17.298Z,101797.34
2022-12-03T00:08:22.140Z,101804.66
2022-12-03T00:13:25.475Z,101809.31
2022-12-03T00:18:29.019Z,101800.63
2022-12-03T00:23:37.176Z,101812.41
2022-12-03T00:28:45.027Z,101804.75
2022-12-03T00:33:48.319Z,101811.34
2022-12-03T00:38:53.322Z,101809.00
2022-12-03T00:43:57.975Z,101814.56
2022-12-03T00:49:01.436Z,101814.88
2022-12-03T00:54:06.243Z,101795.47
2022-12-03T00:59:09.822Z,101818.97
2022-12-03T01:04:13.165Z,101816.91
2022-12-03T01:09:18.046Z,101811.50
2022-12-03T01:14:22.209Z,101829.13
2022-12-03T01:19:25.681Z,101824.25
2022-12-03T01:24:30.529Z,101827.28
2022-12-03T01:29:33.831Z,101824.06
2022-12-03T01:34:37.259Z,101834.44
2022-12-03T01:39:42.404Z,101833.00
2022-12-03T01:44:47.201Z,101827.38
2022-12-03T01:49:54.354Z,101830.69
2022-12-03T01:55:01.986Z,101832.09
2022-12-03T02:00:08.725Z,101827.94
2022-12-03T02:05:19.270Z,101838.88
2022-12-03T02:10:27.318Z,101837.94
2022-12-03T02:15:30.830Z,101841.69
2022-12-03T02:20:39.417Z,101847.28
2022-12-03T02:25:44.195Z,101852.13
2022-12-03T02:30:47.807Z,101851.91
2022-12-03T02:35:51.369Z,101854.94
2022-12-03T02:41:00.694Z,101842.22
2022-12-03T02:46:06.807Z,101845.53
2022-12-03T02:51:12.286Z,101850.13
2022-12-03T02:56:20.209Z,101845.31
2022-12-03T03:01:23.874Z,101858.81
2022-12-03T03:06:27.541Z,101857.41
2022-12-03T03:11:32.603Z,101861.41
2022-12-03T03:16:36.475Z,101864.81
2022-12-03T03:21:40.113Z,101851.75
2022-12-03T03:26:45.054Z,101865.47
2022-12-03T03:31:49.329Z,101863.56
2022-12-03T03:36:52.771Z,101858.81
2022-12-03T03:41:57.584Z,101865.81
2022-12-03T03:47:01.783Z,101867.44
2022-12-03T03:52:05.576Z,101869.53
2022-12-03T03:57:10.610Z,101868.06
2022-12-03T04:02:20.976Z,101869.19
2022-12-03T04:07:24.357Z,101873.63
2022-12-03T04:12:46.408Z,101870.31
2022-12-03T04:18:09.984Z,101869.06
2022-12-03T04:23:13.325Z,101875.59
2022-12-03T04:28:35.381Z,101877.63
2022-12-03T04:33:55.936Z,101886.69
2022-12-03T04:38:59.247Z,101874.97
2022-12-03T04:44:21.312Z,101887.88
2022-12-03T04:49:24.830Z,101889.50
2022-12-03T04:54:28.273Z,101891.69
2022-12-03T04:59:33.611Z,101900.03
2022-12-03T05:04:37.270Z,101906.03
2022-12-03T05:09:40.897Z,101918.94
2022-12-03T05:14:45.728Z,101921.88
2022-12-03T05:20:06.261Z,101927.09
2022-12-03T05:25:10.726Z,101929.13
2022-12-03T05:30:16.942Z,101933.16
2022-12-03T05:35:20.452Z,101931.72
2022-12-03T05:40:24.214Z,101947.25
2022-12-03T05:45:30.697Z,101952.34
2022-12-03T05:50:36.362Z,101953.03
2022-12-03T05:55:40.228Z,101964.94
2022-12-03T06:00:45.180Z,101956.16
2022-12-03T06:05:48.589Z,101964.28
2022-12-03T06:10:52.528Z,101965.22
2022-12-03T06:15:57.539Z,101967.44
2022-12-03T06:21:00.991Z,101963.72
2022-12-03T06:26:06.542Z,101964.09
2022-12-03T06:31:11.470Z,101952.63
2022-12-03T06:36:21.521Z,101949.81
2022-12-03T06:41:26.234Z,101955.50
2022-12-03T06:46:31.050Z,101956.44
2022-12-03T06:51:34.458Z,101956.75
2022-12-03T06:56:43.601Z,101958.59
2022-12-03T07:01:50.245Z,101960.50
2022-12-03T07:06:53.827Z,101965.00
2022-12-03T07:11:57.307Z,101957.69
2022-12-03T07:17:02.003Z,101952.75
2022-12-03T07:22:05.988Z,101959.28
2022-12-03T07:27:24.630Z,101956.72
2022-12-03T07:32:29.455Z,101954.72
2022-12-03T07:37:32.792Z,101958.75
2022-12-03T07:42:36.465Z,101962.19
2022-12-03T07:47:41.320Z,101949.06
2022-12-03T07:52:44.760Z,101950.88
2022-12-03T07:57:48.255Z,101949.69
2022-12-03T08:02:52.974Z,101949.47
2022-12-03T08:07:56.660Z,101956.47
2022-12-03T08:13:00.912Z,101946.16
2022-12-03T08:18:09.698Z,101941.97
2022-12-03T08:23:16.605Z,101939.84
2022-12-03T08:28:22.266Z,101941.53
2022-12-03T08:33:29.207Z,101938.09
2022-12-03T08:38:32.813Z,101938.25
2022-12-03T08:43:42.272Z,101924.53
2022-12-03T08:48:49.463Z,101936.88
2022-12-03T08:54:01.047Z,101942.97
2022-12-03T08:59:25.686Z,101939.97
2022-12-03T09:04:37.509Z,101945.94
2022-12-03T09:09:40.986Z,101928.47
2022-12-03T09:14:44.786Z,101935.38
2022-12-03T09:19:49.664Z,101908.84
2022-12-03T09:24:53.195Z,101931.56
2022-12-03T09:29:56.813Z,101930.41
2022-12-03T09:35:01.710Z,101933.06
2022-12-03T09:40:05.663Z,101934.53
2022-12-03T09:45:12.539Z,101927.59
2022-12-03T09:50:20.271Z,101926.00
2022-12-03T09:55:27.180Z,101925.16
2022-12-03T10:00:31.585Z,101935.94
2022-12-03T10:05:36.692Z,101923.28
2022-12-03T10:10:41.985Z,101929.16
2022-12-03T10:15:45.407Z,101919.38
2022-12-03T10:20:51.352Z,101928.88
2022-12-03T10:25:57.296Z,101930.47
2022-12-03T10:31:02.121Z,101923.38
2022-12-03T10:36:25.377Z,101932.59
2022-12-03T10:41:30.010Z,101917.25
2022-12-03T10:46:33.648Z,101913.47
2022-12-03T10:51:39.569Z,101925.47
2022-12-03T10:56:42.910Z,101923.19
2022-12-03T11:01:46.992Z,101919.38
2022-12-03T11:06:52.178Z,101926.97
2022-12-03T11:11:56.182Z,101932.28
2022-12-03T11:17:10.058Z,101927.84
2022-12-03T11:22:42.742Z,101935.13
2022-12-03T11:28:06.482Z,101930.78
2022-12-03T11:33:25.759Z,101932.09
2022-12-03T11:38:53.367Z,101923.13
2022-12-03T11:44:20.392Z,101927.69
2022-12-03T11:49:48.251Z,101929.81
2022-12-03T11:54:56.187Z,101926.72
2022-12-03T12:00:06.842Z,101927.19
2022-12-03T12:05:21.885Z,101921.13
2022-12-03T12:10:44.671Z,101930.06
2022-12-03T12:15:48.190Z,101929.66
2022-12-03T12:20:51.699Z,101926.31
2022-12-03T12:26:07.388Z,101923.59
2022-12-03T12:31:12.593Z,101923.09
2022-12-03T12:36:16.116Z,101926.47
2022-12-03T12:41:20.980Z,101931.94
2022-12-03T12:46:47.420Z,101934.38
2022-12-03T12:51:49.467Z,101933.91
2022-12-03T12:56:54.195Z,101941.72
2022-12-03T13:01:57.393Z,101937.25
2022-12-03T13:07:01.257Z,101937.72
2022-12-03T13:12:07.760Z,101937.22
2022-12-03T13:17:16.814Z,101934.06
2022-12-03T13:22:22.279Z,101938.88
2022-12-03T13:27:30.754Z,101936.91
2022-12-03T13:32:37.379Z,101939.22
2022-12-03T13:37:40.926Z,101937.88
2022-12-03T13:42:46.712Z,101931.78
2022-12-03T13:47:54.548Z,101943.19
2022-12-03T13:52:59.330Z,101944.63
2022-12-03T13:58:04.238Z,101939.78
2022-12-03T14:03:07.766Z,101946.56
2022-12-03T14:08:11.180Z,101946.28
2022-12-03T14:13:16.060Z,101937.03
2022-12-03T14:18:19.445Z,101945.78
2022-12-03T14:23:22.946Z,101950.28
2022-12-03T14:28:27.846Z,101953.38
2022-12-03T14:33:31.187Z,101961.31
2022-12-03T14:38:34.810Z,101942.16
2022-12-03T14:43:39.722Z,101938.84
2022-12-03T14:48:43.083Z,101946.56
2022-12-03T14:53:46.522Z,101948.41
2022-12-03T14:58:51.231Z,101938.00
2022-12-03T15:03:54.378Z,101940.72
2022-12-03T15:08:57.717Z,101941.13
2022-12-03T15:14:02.586Z,101939.19
2022-12-03T15:19:05.874Z,101942.94
2022-12-03T15:24:10.671Z,101953.91
2022-12-03T15:29:15.488Z,101948.25
2022-12-03T15:34:22.898Z,101945.00
2022-12-03T15:39:26.607Z,101944.81
2022-12-03T15:44:31.538Z,101956.06
2022-12-03T15:49:34.904Z,101955.44
2022-12-03T15:54:38.242Z,101958.81
2022-12-03T15:59:43.484Z,101946.19
2022-12-03T16:04:46.912Z,101960.88
2022-12-03T16:09:50.615Z,101959.22
2022-12-03T16:14:55.665Z,101961.06
2022-12-03T16:19:59.125Z,101964.69
2022-12-03T16:25:03.479Z,101964.19
2022-12-03T16:30:10.214Z,101960.91
2022-12-03T16:35:13.691Z,101954.94
2022-12-03T16:40:17.080Z,101957.41
2022-12-03T16:45:51.143Z,101961.38
2022-12-03T16:50:54.924Z,101962.44
2022-12-03T16:55:58.401Z,101972.16
2022-12-03T17:01:03.296Z,101967.66
2022-12-03T17:06:07.235Z,101976.63
2022-12-03T17:11:10.759Z,101965.25
2022-12-03T17:16:15.740Z,101966.13
2022-12-03T17:21:19.240Z,101971.03
2022-12-03T17:26:22.710Z,101971.56
2022-12-03T17:31:27.705Z,101966.06
2022-12-03T17:36:31.240Z,101975.59
2022-12-03T17:41:34.980Z,101977.13
2022-12-03T17:46:40.405Z,101998.97
2022-12-03T17:51:43.878Z,101993.69
2022-12-03T17:56:47.343Z,101996.09
2022-12-03T18:01:52.246Z,101986.22
2022-12-03T18:07:00.649Z,101977.75
2022-12-03T18:12:06.127Z,101996.75
2022-12-03T18:17:11.373Z,101985.00
2022-12-03T18:22:15.030Z,101992.38
2022-12-03T18:27:19.500Z,101983.38
2022-12-03T18:32:31.501Z,101986.38
2022-12-03T18:37:35.279Z,101997.31
2022-12-03T18:42:38.629Z,101992.00
2022-12-03T18:47:44.521Z,101999.50
2022-12-03T18:52:47.977Z,102003.88
2022-12-03T18:57:52.067Z,102010.22
2022-12-03T19:03:04.631Z,102021.72
2022-12-03T19:08:14.869Z,102019.59
2022-12-03T19:13:18.530Z,102027.59
2022-12-03T19:18:23.816Z,102024.91
2022-12-03T19:23:27.207Z,102018.78
2022-12-03T19:28:31.155Z,102004.88
2022-12-03T19:33:36.425Z,102031.59
2022-12-03T19:38:39.930Z,102031.31
2022-12-03T19:43:43.295Z,102031.41
2022-12-03T19:48:48.724Z,102037.31
2022-12-03T19:53:52.182Z,102032.56
2022-12-03T19:58:56.645Z,102018.50
2022-12-03T20:04:03.637Z,102024.56
2022-12-03T20:09:09.454Z,102027.41
2022-12-03T20:14:16.060Z,102026.97
2022-12-03T20:19:20.819Z,102026.25
2022-12-03T20:24:24.259Z,102021.31
2022-12-03T20:29:27.542Z,102025.66
2022-12-03T20:34:34.216Z,102023.56
2022-12-03T20:39:37.638Z,102027.13
2022-12-03T20:44:41.219Z,102026.75
2022-12-03T20:49:46.472Z,102018.34
2022-12-03T20:54:49.892Z,102026.59
2022-12-03T20:59:55.529Z,102018.78
2022-12-03T21:05:00.570Z,102012.16
2022-12-03T21:10:04.416Z,102005.56
2022-12-03T21:15:08.718Z,102013.16
2022-12-03T21:20:16.697Z,102013.25
2022-12-03T21:25:24.086Z,102005.06
2022-12-03T21:30:28.980Z,102008.50
2022-12-03T21:35:34.126Z,101997.31
2022-12-03T21:40:37.569Z,102011.19
2022-12-03T21:45:41.528Z,102015.81
2022-12-03T21:50:47.389Z,102015.47
2022-12-03T21:55:50.950Z,102017.78
2022-12-03T22:00:54.358Z,102006.28
2022-12-03T22:05:59.131Z,102013.63
2022-12-03T22:11:06.538Z,102015.47
2022-12-03T22:16:11.680Z,102013.34
2022-12-03T22:21:19.014Z,102015.09
2022-12-03T22:26:22.401Z,102009.59
2022-12-03T22:31:25.912Z,101999.59
2022-12-03T22:36:31.177Z,102004.47
2022-12-03T22:41:34.523Z,101999.31
2022-12-03T22:46:37.921Z,101998.88
2022-12-03T22:51:45.863Z,102010.09
2022-12-03T22:56:49.482Z,102019.25
2022-12-03T23:01:52.978Z,102015.66
2022-12-03T23:06:57.875Z,102024.41
2022-12-03T23:12:01.238Z,102023.47
2022-12-03T23:17:04.981Z,102016.78
2022-12-03T23:22:09.870Z,102015.81
2022-12-03T23:27:13.854Z,102023.50
2022-12-03T23:32:17.590Z,102023.28
2022-12-03T23:37:22.995Z,102035.09
2022-12-03T23:42:26.351Z,102038.91
2022-12-03T23:47:29.847Z,102024.81
2022-12-03T23:52:36.823Z,102025.44
2022-12-03T23:57:40.291Z,102026.69
